sensor_id;sensor_type;location;lat;lon;timestamp;P1;durP1;ratioP1;P2;durP2;ratioP2
7657;SDS011;8462;53.156;8.220;2023-06-04T00:02:21;2.40;;;1.70;;
7657;SDS011;8462;53.156;8.220;2023-06-04T00:04:48;3.93;;;1.93;;
7657;SDS011;8462;53.156;8.220;2023-06-04T00:07:14;2.40;;;1.60;;
7657;SDS011;8462;53.156;8.220;2023-06-04T00:09:41;4.77;;;1.83;;
7657;SDS011;8462;53.156;8.220;2023-06-04T00:12:09;2.13;;;1.53;;
7657;SDS011;8462;53.156;8.220;2023-06-04T00:14:36;2.17;;;1.97;;
7657;SDS011;8462;53.156;8.220;2023-06-04T00:17:03;1.43;;;1.20;;
7657;SDS011;8462;53.156;8.220;2023-06-04T00:19:32;2.57;;;1.33;;
7657;SDS011;8462;53.156;8.220;2023-06-04T00:21:59;2.97;;;1.70;;
7657;SDS011;8462;53.156;8.220;2023-06-04T00:24:26;2.70;;;2.13;;
7657;SDS011;8462;53.156;8.220;2023-06-04T00:26:53;4.33;;;1.90;;
7657;SDS011;8462;53.156;8.220;2023-06-04T00:29:20;3.10;;;1.80;;
7657;SDS011;8462;53.156;8.220;2023-06-04T00:31:47;4.33;;;2.17;;
7657;SDS011;8462;53.156;8.220;2023-06-04T00:34:14;2.40;;;1.60;;
7657;SDS011;8462;53.156;8.220;2023-06-04T00:36:44;2.23;;;1.53;;
7657;SDS011;8462;53.156;8.220;2023-06-04T00:39:11;2.77;;;1.43;;
7657;SDS011;8462;53.156;8.220;2023-06-04T00:41:38;4.60;;;1.50;;
7657;SDS011;8462;53.156;8.220;2023-06-04T00:44:05;3.73;;;1.90;;
7657;SDS011;8462;53.156;8.220;2023-06-04T00:46:32;3.33;;;1.97;;
7657;SDS011;8462;53.156;8.220;2023-06-04T00:49:01;4.77;;;1.90;;
7657;SDS011;8462;53.156;8.220;2023-06-04T00:51:29;3.30;;;1.83;;
7657;SDS011;8462;53.156;8.220;2023-06-04T00:53:59;4.47;;;1.73;;
7657;SDS011;8462;53.156;8.220;2023-06-04T00:56:33;3.73;;;1.90;;
7657;SDS011;8462;53.156;8.220;2023-06-04T00:59:00;5.17;;;1.83;;
7657;SDS011;8462;53.156;8.220;2023-06-04T01:01:31;4.47;;;2.60;;
7657;SDS011;8462;53.156;8.220;2023-06-04T01:04:12;5.07;;;1.97;;
7657;SDS011;8462;53.156;8.220;2023-06-04T01:06:45;3.23;;;2.23;;
7657;SDS011;8462;53.156;8.220;2023-06-04T01:09:21;4.27;;;2.03;;
7657;SDS011;8462;53.156;8.220;2023-06-04T01:11:48;4.80;;;2.13;;
7657;SDS011;8462;53.156;8.220;2023-06-04T01:14:15;4.00;;;1.90;;
7657;SDS011;8462;53.156;8.220;2023-06-04T01:16:46;3.20;;;2.17;;
7657;SDS011;8462;53.156;8.220;2023-06-04T01:19:22;6.03;;;2.17;;
7657;SDS011;8462;53.156;8.220;2023-06-04T01:22:08;5.47;;;2.53;;
7657;SDS011;8462;53.156;8.220;2023-06-04T01:24:47;3.33;;;1.60;;
7657;SDS011;8462;53.156;8.220;2023-06-04T01:27:20;4.93;;;1.97;;
7657;SDS011;8462;53.156;8.220;2023-06-04T01:29:48;4.33;;;1.90;;
7657;SDS011;8462;53.156;8.220;2023-06-04T01:32:19;3.83;;;2.10;;
7657;SDS011;8462;53.156;8.220;2023-06-04T01:34:46;2.27;;;2.07;;
7657;SDS011;8462;53.156;8.220;2023-06-04T01:37:13;5.60;;;2.20;;
7657;SDS011;8462;53.156;8.220;2023-06-04T01:39:41;5.17;;;2.40;;
7657;SDS011;8462;53.156;8.220;2023-06-04T01:42:10;2.83;;;2.00;;
7657;SDS011;8462;53.156;8.220;2023-06-04T01:44:37;4.77;;;2.50;;
7657;SDS011;8462;53.156;8.220;2023-06-04T01:47:04;4.60;;;2.23;;
7657;SDS011;8462;53.156;8.220;2023-06-04T01:49:31;5.90;;;2.80;;
7657;SDS011;8462;53.156;8.220;2023-06-04T01:51:58;5.20;;;2.60;;
7657;SDS011;8462;53.156;8.220;2023-06-04T01:54:24;5.20;;;2.57;;
7657;SDS011;8462;53.156;8.220;2023-06-04T01:56:51;4.27;;;2.87;;
7657;SDS011;8462;53.156;8.220;2023-06-04T01:59:19;5.10;;;2.73;;
7657;SDS011;8462;53.156;8.220;2023-06-04T02:01:47;3.77;;;2.97;;
7657;SDS011;8462;53.156;8.220;2023-06-04T02:04:14;4.87;;;2.50;;
7657;SDS011;8462;53.156;8.220;2023-06-04T02:06:41;5.17;;;3.10;;
7657;SDS011;8462;53.156;8.220;2023-06-04T02:09:08;6.57;;;3.37;;
7657;SDS011;8462;53.156;8.220;2023-06-04T02:11:35;7.30;;;3.20;;
7657;SDS011;8462;53.156;8.220;2023-06-04T02:14:01;7.10;;;3.20;;
7657;SDS011;8462;53.156;8.220;2023-06-04T02:16:30;8.33;;;3.37;;
7657;SDS011;8462;53.156;8.220;2023-06-04T02:18:57;4.67;;;3.07;;
7657;SDS011;8462;53.156;8.220;2023-06-04T02:21:26;5.73;;;3.43;;
7657;SDS011;8462;53.156;8.220;2023-06-04T02:23:53;8.30;;;3.70;;
7657;SDS011;8462;53.156;8.220;2023-06-04T02:26:20;8.23;;;4.03;;
7657;SDS011;8462;53.156;8.220;2023-06-04T02:28:48;6.93;;;3.33;;
7657;SDS011;8462;53.156;8.220;2023-06-04T02:31:15;8.97;;;3.50;;
7657;SDS011;8462;53.156;8.220;2023-06-04T02:33:44;6.67;;;3.10;;
7657;SDS011;8462;53.156;8.220;2023-06-04T02:36:11;8.07;;;3.50;;
7657;SDS011;8462;53.156;8.220;2023-06-04T02:38:38;6.60;;;3.17;;
7657;SDS011;8462;53.156;8.220;2023-06-04T02:41:05;8.67;;;3.80;;
7657;SDS011;8462;53.156;8.220;2023-06-04T02:43:32;6.20;;;3.50;;
7657;SDS011;8462;53.156;8.220;2023-06-04T02:45:59;5.53;;;2.93;;
7657;SDS011;8462;53.156;8.220;2023-06-04T02:48:26;5.87;;;3.10;;
7657;SDS011;8462;53.156;8.220;2023-06-04T02:50:54;7.60;;;2.90;;
7657;SDS011;8462;53.156;8.220;2023-06-04T02:53:21;5.23;;;3.27;;
7657;SDS011;8462;53.156;8.220;2023-06-04T02:55:48;3.50;;;2.60;;
7657;SDS011;8462;53.156;8.220;2023-06-04T02:58:17;4.33;;;3.07;;
7657;SDS011;8462;53.156;8.220;2023-06-04T03:00:44;7.43;;;3.20;;
7657;SDS011;8462;53.156;8.220;2023-06-04T03:03:11;6.73;;;3.07;;
7657;SDS011;8462;53.156;8.220;2023-06-04T03:05:37;6.10;;;3.37;;
7657;SDS011;8462;53.156;8.220;2023-06-04T03:08:06;8.20;;;3.53;;
7657;SDS011;8462;53.156;8.220;2023-06-04T03:10:33;6.10;;;3.60;;
7657;SDS011;8462;53.156;8.220;2023-06-04T03:13:00;7.07;;;3.50;;
7657;SDS011;8462;53.156;8.220;2023-06-04T03:15:26;5.77;;;3.17;;
7657;SDS011;8462;53.156;8.220;2023-06-04T03:17:53;7.53;;;3.37;;
7657;SDS011;8462;53.156;8.220;2023-06-04T03:20:20;6.23;;;3.90;;
7657;SDS011;8462;53.156;8.220;2023-06-04T03:22:49;6.27;;;3.53;;
7657;SDS011;8462;53.156;8.220;2023-06-04T03:25:17;8.40;;;3.20;;
7657;SDS011;8462;53.156;8.220;2023-06-04T03:27:45;8.57;;;3.80;;
7657;SDS011;8462;53.156;8.220;2023-06-04T03:30:13;7.77;;;3.73;;
7657;SDS011;8462;53.156;8.220;2023-06-04T03:32:53;7.43;;;3.43;;
7657;SDS011;8462;53.156;8.220;2023-06-04T03:35:20;4.83;;;3.67;;
7657;SDS011;8462;53.156;8.220;2023-06-04T03:37:47;4.50;;;3.23;;
7657;SDS011;8462;53.156;8.220;2023-06-04T03:40:13;4.27;;;3.00;;
7657;SDS011;8462;53.156;8.220;2023-06-04T03:42:44;6.53;;;3.07;;
7657;SDS011;8462;53.156;8.220;2023-06-04T03:45:13;5.53;;;3.23;;
7657;SDS011;8462;53.156;8.220;2023-06-04T03:47:40;6.17;;;3.37;;
7657;SDS011;8462;53.156;8.220;2023-06-04T03:50:08;9.80;;;3.67;;
7657;SDS011;8462;53.156;8.220;2023-06-04T03:52:36;7.37;;;3.63;;
7657;SDS011;8462;53.156;8.220;2023-06-04T03:55:04;5.97;;;3.60;;
7657;SDS011;8462;53.156;8.220;2023-06-04T03:57:31;7.77;;;3.50;;
7657;SDS011;8462;53.156;8.220;2023-06-04T04:00:00;5.73;;;3.53;;
7657;SDS011;8462;53.156;8.220;2023-06-04T04:02:38;10.43;;;3.60;;
7657;SDS011;8462;53.156;8.220;2023-06-04T04:05:07;4.47;;;3.07;;
7657;SDS011;8462;53.156;8.220;2023-06-04T04:07:36;8.63;;;3.83;;
7657;SDS011;8462;53.156;8.220;2023-06-04T04:10:04;9.27;;;3.23;;
7657;SDS011;8462;53.156;8.220;2023-06-04T04:12:32;9.07;;;3.67;;
7657;SDS011;8462;53.156;8.220;2023-06-04T04:15:01;5.47;;;3.33;;
7657;SDS011;8462;53.156;8.220;2023-06-04T04:17:27;5.20;;;2.90;;
7657;SDS011;8462;53.156;8.220;2023-06-04T04:19:55;8.37;;;3.20;;
7657;SDS011;8462;53.156;8.220;2023-06-04T04:22:21;5.50;;;3.40;;
7657;SDS011;8462;53.156;8.220;2023-06-04T04:24:49;5.53;;;3.03;;
7657;SDS011;8462;53.156;8.220;2023-06-04T04:27:16;3.23;;;2.43;;
7657;SDS011;8462;53.156;8.220;2023-06-04T04:29:45;4.10;;;2.83;;
7657;SDS011;8462;53.156;8.220;2023-06-04T04:32:14;3.20;;;2.57;;
7657;SDS011;8462;53.156;8.220;2023-06-04T04:34:51;3.47;;;2.30;;
7657;SDS011;8462;53.156;8.220;2023-06-04T04:37:23;3.67;;;2.73;;
7657;SDS011;8462;53.156;8.220;2023-06-04T04:39:54;3.00;;;2.30;;
7657;SDS011;8462;53.156;8.220;2023-06-04T04:42:23;4.37;;;2.60;;
7657;SDS011;8462;53.156;8.220;2023-06-04T04:44:50;3.63;;;2.30;;
7657;SDS011;8462;53.156;8.220;2023-06-04T04:47:21;5.97;;;3.03;;
7657;SDS011;8462;53.156;8.220;2023-06-04T04:49:48;5.87;;;2.30;;
7657;SDS011;8462;53.156;8.220;2023-06-04T04:52:15;5.30;;;2.30;;
7657;SDS011;8462;53.156;8.220;2023-06-04T04:54:43;3.57;;;2.23;;
7657;SDS011;8462;53.156;8.220;2023-06-04T04:57:10;4.37;;;2.80;;
7657;SDS011;8462;53.156;8.220;2023-06-04T04:59:37;3.83;;;2.10;;
7657;SDS011;8462;53.156;8.220;2023-06-04T05:02:05;4.30;;;2.43;;
7657;SDS011;8462;53.156;8.220;2023-06-04T05:04:33;4.13;;;2.10;;
7657;SDS011;8462;53.156;8.220;2023-06-04T05:07:00;4.50;;;2.27;;
7657;SDS011;8462;53.156;8.220;2023-06-04T05:09:27;3.37;;;1.80;;
7657;SDS011;8462;53.156;8.220;2023-06-04T05:11:54;4.37;;;1.73;;
7657;SDS011;8462;53.156;8.220;2023-06-04T05:14:21;3.47;;;1.90;;
7657;SDS011;8462;53.156;8.220;2023-06-04T05:16:48;3.57;;;1.50;;
7657;SDS011;8462;53.156;8.220;2023-06-04T05:19:16;3.00;;;1.43;;
7657;SDS011;8462;53.156;8.220;2023-06-04T05:21:44;4.27;;;1.60;;
7657;SDS011;8462;53.156;8.220;2023-06-04T05:24:13;2.83;;;1.50;;
7657;SDS011;8462;53.156;8.220;2023-06-04T05:26:40;3.60;;;1.53;;
7657;SDS011;8462;53.156;8.220;2023-06-04T05:29:13;2.33;;;1.80;;
7657;SDS011;8462;53.156;8.220;2023-06-04T05:31:42;3.55;;;1.42;;
7657;SDS011;8462;53.156;8.220;2023-06-04T05:34:11;1.95;;;1.23;;
7657;SDS011;8462;53.156;8.220;2023-06-04T05:36:41;2.25;;;1.45;;
7657;SDS011;8462;53.156;8.220;2023-06-04T05:39:10;3.13;;;1.60;;
7657;SDS011;8462;53.156;8.220;2023-06-04T05:41:45;3.20;;;1.48;;
7657;SDS011;8462;53.156;8.220;2023-06-04T05:44:13;2.80;;;1.77;;
7657;SDS011;8462;53.156;8.220;2023-06-04T05:46:40;2.92;;;1.33;;
7657;SDS011;8462;53.156;8.220;2023-06-04T05:49:08;2.17;;;1.50;;
7657;SDS011;8462;53.156;8.220;2023-06-04T05:51:35;2.08;;;1.40;;
7657;SDS011;8462;53.156;8.220;2023-06-04T05:54:03;2.53;;;1.67;;
7657;SDS011;8462;53.156;8.220;2023-06-04T05:56:34;2.53;;;1.40;;
7657;SDS011;8462;53.156;8.220;2023-06-04T05:59:01;5.10;;;1.70;;
7657;SDS011;8462;53.156;8.220;2023-06-04T06:01:28;2.78;;;1.45;;
7657;SDS011;8462;53.156;8.220;2023-06-04T06:03:55;2.75;;;1.25;;
7657;SDS011;8462;53.156;8.220;2023-06-04T06:06:25;1.77;;;1.10;;
7657;SDS011;8462;53.156;8.220;2023-06-04T06:08:52;3.05;;;1.40;;
7657;SDS011;8462;53.156;8.220;2023-06-04T06:11:18;3.15;;;1.70;;
7657;SDS011;8462;53.156;8.220;2023-06-04T06:13:47;3.05;;;1.52;;
7657;SDS011;8462;53.156;8.220;2023-06-04T06:16:15;6.93;;;1.77;;
7657;SDS011;8462;53.156;8.220;2023-06-04T06:18:43;2.72;;;1.48;;
7657;SDS011;8462;53.156;8.220;2023-06-04T06:21:10;2.13;;;1.52;;
7657;SDS011;8462;53.156;8.220;2023-06-04T06:23:38;4.57;;;1.98;;
7657;SDS011;8462;53.156;8.220;2023-06-04T06:26:05;2.75;;;1.10;;
7657;SDS011;8462;53.156;8.220;2023-06-04T06:28:38;2.90;;;1.42;;
7657;SDS011;8462;53.156;8.220;2023-06-04T06:31:07;4.93;;;1.60;;
7657;SDS011;8462;53.156;8.220;2023-06-04T06:33:34;3.63;;;1.50;;
7657;SDS011;8462;53.156;8.220;2023-06-04T06:36:06;1.27;;;1.17;;
7657;SDS011;8462;53.156;8.220;2023-06-04T06:38:33;2.63;;;1.48;;
7657;SDS011;8462;53.156;8.220;2023-06-04T06:41:00;2.30;;;1.63;;
7657;SDS011;8462;53.156;8.220;2023-06-04T06:43:26;4.47;;;1.70;;
7657;SDS011;8462;53.156;8.220;2023-06-04T06:45:53;3.20;;;1.83;;
7657;SDS011;8462;53.156;8.220;2023-06-04T06:48:22;1.83;;;1.02;;
7657;SDS011;8462;53.156;8.220;2023-06-04T06:50:48;4.20;;;1.58;;
7657;SDS011;8462;53.156;8.220;2023-06-04T06:53:15;2.95;;;1.40;;
7657;SDS011;8462;53.156;8.220;2023-06-04T06:55:42;3.70;;;1.70;;
7657;SDS011;8462;53.156;8.220;2023-06-04T06:58:09;3.38;;;1.45;;
7657;SDS011;8462;53.156;8.220;2023-06-04T07:00:36;2.47;;;1.40;;
7657;SDS011;8462;53.156;8.220;2023-06-04T07:03:03;3.22;;;1.65;;
7657;SDS011;8462;53.156;8.220;2023-06-04T07:05:31;4.53;;;1.40;;
7657;SDS011;8462;53.156;8.220;2023-06-04T07:07:58;2.75;;;1.85;;
7657;SDS011;8462;53.156;8.220;2023-06-04T07:10:26;2.47;;;1.63;;
7657;SDS011;8462;53.156;8.220;2023-06-04T07:12:52;3.17;;;1.35;;
7657;SDS011;8462;53.156;8.220;2023-06-04T07:15:19;1.73;;;1.50;;
7657;SDS011;8462;53.156;8.220;2023-06-04T07:17:46;4.38;;;1.38;;
7657;SDS011;8462;53.156;8.220;2023-06-04T07:20:13;1.60;;;1.00;;
7657;SDS011;8462;53.156;8.220;2023-06-04T07:22:41;1.98;;;1.58;;
7657;SDS011;8462;53.156;8.220;2023-06-04T07:25:08;1.70;;;1.27;;
7657;SDS011;8462;53.156;8.220;2023-06-04T07:27:35;2.60;;;1.33;;
7657;SDS011;8462;53.156;8.220;2023-06-04T07:30:03;2.40;;;1.58;;
7657;SDS011;8462;53.156;8.220;2023-06-04T07:32:32;2.42;;;1.60;;
7657;SDS011;8462;53.156;8.220;2023-06-04T07:34:59;3.63;;;1.67;;
7657;SDS011;8462;53.156;8.220;2023-06-04T07:37:26;2.22;;;1.23;;
7657;SDS011;8462;53.156;8.220;2023-06-04T07:39:54;1.95;;;1.05;;
7657;SDS011;8462;53.156;8.220;2023-06-04T07:42:21;1.60;;;1.27;;
7657;SDS011;8462;53.156;8.220;2023-06-04T07:44:48;3.25;;;1.75;;
7657;SDS011;8462;53.156;8.220;2023-06-04T07:47:15;1.50;;;1.30;;
7657;SDS011;8462;53.156;8.220;2023-06-04T07:49:42;3.28;;;1.60;;
7657;SDS011;8462;53.156;8.220;2023-06-04T07:52:08;3.87;;;1.37;;
7657;SDS011;8462;53.156;8.220;2023-06-04T07:54:35;2.10;;;1.23;;
7657;SDS011;8462;53.156;8.220;2023-06-04T07:57:04;3.77;;;1.47;;
7657;SDS011;8462;53.156;8.220;2023-06-04T07:59:31;4.50;;;2.43;;
7657;SDS011;8462;53.156;8.220;2023-06-04T08:01:57;1.90;;;1.23;;
7657;SDS011;8462;53.156;8.220;2023-06-04T08:04:24;1.93;;;1.30;;
7657;SDS011;8462;53.156;8.220;2023-06-04T08:06:54;4.33;;;1.70;;
7657;SDS011;8462;53.156;8.220;2023-06-04T08:09:21;3.47;;;1.87;;
7657;SDS011;8462;53.156;8.220;2023-06-04T08:11:48;4.30;;;1.73;;
7657;SDS011;8462;53.156;8.220;2023-06-04T08:14:16;4.07;;;1.67;;
7657;SDS011;8462;53.156;8.220;2023-06-04T08:16:45;6.03;;;1.93;;
7657;SDS011;8462;53.156;8.220;2023-06-04T08:19:12;3.67;;;1.43;;
7657;SDS011;8462;53.156;8.220;2023-06-04T08:21:38;4.07;;;1.90;;
7657;SDS011;8462;53.156;8.220;2023-06-04T08:24:08;6.27;;;1.60;;
7657;SDS011;8462;53.156;8.220;2023-06-04T08:26:35;2.47;;;1.50;;
7657;SDS011;8462;53.156;8.220;2023-06-04T08:29:02;3.17;;;1.63;;
7657;SDS011;8462;53.156;8.220;2023-06-04T08:31:31;4.67;;;1.50;;
7657;SDS011;8462;53.156;8.220;2023-06-04T08:33:58;3.17;;;1.80;;
7657;SDS011;8462;53.156;8.220;2023-06-04T08:36:26;3.73;;;1.63;;
7657;SDS011;8462;53.156;8.220;2023-06-04T08:38:53;3.40;;;1.67;;
7657;SDS011;8462;53.156;8.220;2023-06-04T08:41:24;4.30;;;1.70;;
7657;SDS011;8462;53.156;8.220;2023-06-04T08:43:54;2.77;;;1.30;;
7657;SDS011;8462;53.156;8.220;2023-06-04T08:46:22;2.30;;;1.60;;
7657;SDS011;8462;53.156;8.220;2023-06-04T08:48:51;3.30;;;1.60;;
7657;SDS011;8462;53.156;8.220;2023-06-04T08:51:21;2.60;;;1.37;;
7657;SDS011;8462;53.156;8.220;2023-06-04T08:53:48;3.23;;;1.40;;
7657;SDS011;8462;53.156;8.220;2023-06-04T08:56:15;4.10;;;1.60;;
7657;SDS011;8462;53.156;8.220;2023-06-04T08:58:43;3.40;;;1.27;;
7657;SDS011;8462;53.156;8.220;2023-06-04T09:01:10;4.07;;;1.37;;
7657;SDS011;8462;53.156;8.220;2023-06-04T09:03:38;1.90;;;1.40;;
7657;SDS011;8462;53.156;8.220;2023-06-04T09:06:06;3.20;;;1.97;;
7657;SDS011;8462;53.156;8.220;2023-06-04T09:08:34;2.33;;;1.27;;
7657;SDS011;8462;53.156;8.220;2023-06-04T09:11:05;2.33;;;1.30;;
7657;SDS011;8462;53.156;8.220;2023-06-04T09:13:36;3.63;;;1.40;;
7657;SDS011;8462;53.156;8.220;2023-06-04T09:16:05;3.77;;;1.40;;
7657;SDS011;8462;53.156;8.220;2023-06-04T09:18:31;1.90;;;1.10;;
7657;SDS011;8462;53.156;8.220;2023-06-04T09:21:02;2.37;;;1.30;;
7657;SDS011;8462;53.156;8.220;2023-06-04T09:23:33;1.63;;;0.97;;
7657;SDS011;8462;53.156;8.220;2023-06-04T09:26:07;2.53;;;1.20;;
7657;SDS011;8462;53.156;8.220;2023-06-04T09:28:34;3.17;;;1.20;;
7657;SDS011;8462;53.156;8.220;2023-06-04T09:31:01;3.07;;;1.30;;
7657;SDS011;8462;53.156;8.220;2023-06-04T09:33:28;2.67;;;1.30;;
7657;SDS011;8462;53.156;8.220;2023-06-04T09:35:56;2.43;;;1.50;;
7657;SDS011;8462;53.156;8.220;2023-06-04T09:38:23;4.73;;;1.30;;
7657;SDS011;8462;53.156;8.220;2023-06-04T09:41:01;2.17;;;1.57;;
7657;SDS011;8462;53.156;8.220;2023-06-04T09:43:31;3.87;;;1.47;;
7657;SDS011;8462;53.156;8.220;2023-06-04T09:46:08;3.03;;;1.33;;
7657;SDS011;8462;53.156;8.220;2023-06-04T09:48:35;2.00;;;1.43;;
7657;SDS011;8462;53.156;8.220;2023-06-04T09:51:06;3.57;;;1.80;;
7657;SDS011;8462;53.156;8.220;2023-06-04T09:53:34;2.83;;;1.73;;
7657;SDS011;8462;53.156;8.220;2023-06-04T09:56:02;1.80;;;1.20;;
7657;SDS011;8462;53.156;8.220;2023-06-04T09:58:31;2.43;;;1.30;;
7657;SDS011;8462;53.156;8.220;2023-06-04T10:00:58;3.53;;;1.50;;
7657;SDS011;8462;53.156;8.220;2023-06-04T10:03:29;3.80;;;1.90;;
7657;SDS011;8462;53.156;8.220;2023-06-04T10:05:58;4.27;;;1.33;;
7657;SDS011;8462;53.156;8.220;2023-06-04T10:08:27;3.00;;;1.30;;
7657;SDS011;8462;53.156;8.220;2023-06-04T10:10:58;2.57;;;1.47;;
7657;SDS011;8462;53.156;8.220;2023-06-04T10:13:27;4.13;;;1.47;;
7657;SDS011;8462;53.156;8.220;2023-06-04T10:15:56;2.20;;;1.20;;
7657;SDS011;8462;53.156;8.220;2023-06-04T10:18:24;1.57;;;1.20;;
7657;SDS011;8462;53.156;8.220;2023-06-04T10:20:54;3.83;;;1.50;;
7657;SDS011;8462;53.156;8.220;2023-06-04T10:23:22;4.13;;;1.80;;
7657;SDS011;8462;53.156;8.220;2023-06-04T10:25:50;2.97;;;1.30;;
7657;SDS011;8462;53.156;8.220;2023-06-04T10:28:20;2.93;;;1.40;;
7657;SDS011;8462;53.156;8.220;2023-06-04T10:30:49;3.73;;;1.27;;
7657;SDS011;8462;53.156;8.220;2023-06-04T10:33:17;5.00;;;2.53;;
7657;SDS011;8462;53.156;8.220;2023-06-04T10:35:49;2.27;;;1.23;;
7657;SDS011;8462;53.156;8.220;2023-06-04T10:38:16;4.47;;;1.70;;
7657;SDS011;8462;53.156;8.220;2023-06-04T10:40:44;2.23;;;1.67;;
7657;SDS011;8462;53.156;8.220;2023-06-04T10:43:11;2.50;;;1.30;;
7657;SDS011;8462;53.156;8.220;2023-06-04T10:45:42;3.13;;;1.27;;
7657;SDS011;8462;53.156;8.220;2023-06-04T10:48:10;2.43;;;1.30;;
7657;SDS011;8462;53.156;8.220;2023-06-04T10:50:47;3.07;;;1.60;;
7657;SDS011;8462;53.156;8.220;2023-06-04T10:53:15;4.87;;;1.37;;
7657;SDS011;8462;53.156;8.220;2023-06-04T10:55:43;4.33;;;1.77;;
7657;SDS011;8462;53.156;8.220;2023-06-04T10:58:10;6.27;;;1.77;;
7657;SDS011;8462;53.156;8.220;2023-06-04T11:00:37;4.23;;;1.63;;
7657;SDS011;8462;53.156;8.220;2023-06-04T11:03:07;4.17;;;1.50;;
7657;SDS011;8462;53.156;8.220;2023-06-04T11:05:36;4.20;;;1.40;;
7657;SDS011;8462;53.156;8.220;2023-06-04T11:08:03;4.70;;;1.43;;
7657;SDS011;8462;53.156;8.220;2023-06-04T11:10:31;2.97;;;1.30;;
7657;SDS011;8462;53.156;8.220;2023-06-04T11:12:59;1.40;;;1.27;;
7657;SDS011;8462;53.156;8.220;2023-06-04T11:15:26;2.37;;;1.27;;
7657;SDS011;8462;53.156;8.220;2023-06-04T11:18:03;2.23;;;1.63;;
7657;SDS011;8462;53.156;8.220;2023-06-04T11:20:31;1.60;;;1.10;;
7657;SDS011;8462;53.156;8.220;2023-06-04T11:22:58;4.77;;;1.33;;
7657;SDS011;8462;53.156;8.220;2023-06-04T11:25:28;1.27;;;1.00;;
7657;SDS011;8462;53.156;8.220;2023-06-04T11:27:58;2.23;;;2.03;;
7657;SDS011;8462;53.156;8.220;2023-06-04T11:30:26;4.07;;;1.70;;
7657;SDS011;8462;53.156;8.220;2023-06-04T11:33:00;4.80;;;1.60;;
7657;SDS011;8462;53.156;8.220;2023-06-04T11:35:27;3.73;;;1.33;;
7657;SDS011;8462;53.156;8.220;2023-06-04T11:37:57;4.30;;;1.60;;
7657;SDS011;8462;53.156;8.220;2023-06-04T11:40:24;3.80;;;1.47;;
7657;SDS011;8462;53.156;8.220;2023-06-04T11:42:53;1.77;;;1.30;;
7657;SDS011;8462;53.156;8.220;2023-06-04T11:45:20;2.70;;;1.70;;
7657;SDS011;8462;53.156;8.220;2023-06-04T11:47:48;2.13;;;1.40;;
7657;SDS011;8462;53.156;8.220;2023-06-04T11:50:17;2.17;;;1.17;;
7657;SDS011;8462;53.156;8.220;2023-06-04T11:52:44;2.63;;;1.30;;
7657;SDS011;8462;53.156;8.220;2023-06-04T11:55:12;4.40;;;1.60;;
7657;SDS011;8462;53.156;8.220;2023-06-04T11:57:40;3.73;;;1.37;;
7657;SDS011;8462;53.156;8.220;2023-06-04T12:00:08;2.50;;;1.40;;
7657;SDS011;8462;53.156;8.220;2023-06-04T12:02:37;4.47;;;1.53;;
7657;SDS011;8462;53.156;8.220;2023-06-04T12:05:10;3.80;;;2.10;;
7657;SDS011;8462;53.156;8.220;2023-06-04T12:07:40;2.77;;;1.40;;
7657;SDS011;8462;53.156;8.220;2023-06-04T12:10:07;3.13;;;1.87;;
7657;SDS011;8462;53.156;8.220;2023-06-04T12:12:38;2.53;;;1.60;;
7657;SDS011;8462;53.156;8.220;2023-06-04T12:15:07;1.77;;;1.30;;
7657;SDS011;8462;53.156;8.220;2023-06-04T12:17:35;2.97;;;1.27;;
7657;SDS011;8462;53.156;8.220;2023-06-04T12:20:02;3.60;;;1.27;;
7657;SDS011;8462;53.156;8.220;2023-06-04T12:22:33;4.23;;;1.30;;
7657;SDS011;8462;53.156;8.220;2023-06-04T12:25:10;2.47;;;1.60;;
7657;SDS011;8462;53.156;8.220;2023-06-04T12:27:46;2.57;;;1.60;;
7657;SDS011;8462;53.156;8.220;2023-06-04T12:30:13;3.23;;;1.23;;
7657;SDS011;8462;53.156;8.220;2023-06-04T12:32:41;4.33;;;1.60;;
7657;SDS011;8462;53.156;8.220;2023-06-04T12:35:09;3.17;;;1.27;;
7657;SDS011;8462;53.156;8.220;2023-06-04T12:37:36;3.07;;;1.87;;
7657;SDS011;8462;53.156;8.220;2023-06-04T12:40:04;1.53;;;1.00;;
7657;SDS011;8462;53.156;8.220;2023-06-04T12:42:32;3.13;;;1.37;;
7657;SDS011;8462;53.156;8.220;2023-06-04T12:45:07;8.77;;;4.83;;
7657;SDS011;8462;53.156;8.220;2023-06-04T12:47:35;6.73;;;3.53;;
7657;SDS011;8462;53.156;8.220;2023-06-04T12:50:03;1.70;;;1.20;;
7657;SDS011;8462;53.156;8.220;2023-06-04T12:52:30;4.87;;;1.47;;
7657;SDS011;8462;53.156;8.220;2023-06-04T12:54:57;2.43;;;1.27;;
7657;SDS011;8462;53.156;8.220;2023-06-04T12:57:24;2.37;;;1.27;;
7657;SDS011;8462;53.156;8.220;2023-06-04T12:59:51;3.60;;;1.27;;
7657;SDS011;8462;53.156;8.220;2023-06-04T13:02:21;2.53;;;1.30;;
7657;SDS011;8462;53.156;8.220;2023-06-04T13:04:48;3.30;;;1.50;;
7657;SDS011;8462;53.156;8.220;2023-06-04T13:07:18;4.73;;;1.27;;
7657;SDS011;8462;53.156;8.220;2023-06-04T13:09:45;1.83;;;1.43;;
7657;SDS011;8462;53.156;8.220;2023-06-04T13:12:12;1.97;;;1.10;;
7657;SDS011;8462;53.156;8.220;2023-06-04T13:14:38;2.50;;;1.13;;
7657;SDS011;8462;53.156;8.220;2023-06-04T13:17:05;1.70;;;1.00;;
7657;SDS011;8462;53.156;8.220;2023-06-04T13:19:34;2.83;;;1.10;;
7657;SDS011;8462;53.156;8.220;2023-06-04T13:22:07;2.13;;;1.23;;
7657;SDS011;8462;53.156;8.220;2023-06-04T13:24:43;1.70;;;1.20;;
7657;SDS011;8462;53.156;8.220;2023-06-04T13:27:10;2.80;;;1.20;;
7657;SDS011;8462;53.156;8.220;2023-06-04T13:29:38;3.27;;;1.27;;
7657;SDS011;8462;53.156;8.220;2023-06-04T13:32:09;2.53;;;0.90;;
7657;SDS011;8462;53.156;8.220;2023-06-04T13:34:37;2.27;;;1.10;;
7657;SDS011;8462;53.156;8.220;2023-06-04T13:37:12;3.30;;;1.00;;
7657;SDS011;8462;53.156;8.220;2023-06-04T13:39:56;1.67;;;1.10;;
7657;SDS011;8462;53.156;8.220;2023-06-04T13:42:24;3.10;;;1.03;;
7657;SDS011;8462;53.156;8.220;2023-06-04T13:44:51;2.07;;;1.30;;
7657;SDS011;8462;53.156;8.220;2023-06-04T13:47:18;2.47;;;1.10;;
7657;SDS011;8462;53.156;8.220;2023-06-04T13:49:48;2.43;;;0.80;;
7657;SDS011;8462;53.156;8.220;2023-06-04T13:52:16;1.50;;;1.20;;
7657;SDS011;8462;53.156;8.220;2023-06-04T13:54:44;1.47;;;1.07;;
7657;SDS011;8462;53.156;8.220;2023-06-04T13:57:11;1.50;;;1.00;;
7657;SDS011;8462;53.156;8.220;2023-06-04T13:59:39;1.67;;;1.00;;
7657;SDS011;8462;53.156;8.220;2023-06-04T14:02:14;0.97;;;0.80;;
7657;SDS011;8462;53.156;8.220;2023-06-04T14:04:43;6.17;;;1.30;;
7657;SDS011;8462;53.156;8.220;2023-06-04T14:07:21;1.03;;;0.93;;
7657;SDS011;8462;53.156;8.220;2023-06-04T14:09:49;2.33;;;1.10;;
7657;SDS011;8462;53.156;8.220;2023-06-04T14:12:25;1.63;;;1.30;;
7657;SDS011;8462;53.156;8.220;2023-06-04T14:14:53;2.90;;;1.53;;
7657;SDS011;8462;53.156;8.220;2023-06-04T14:17:32;1.40;;;0.97;;
7657;SDS011;8462;53.156;8.220;2023-06-04T14:20:08;3.90;;;1.00;;
7657;SDS011;8462;53.156;8.220;2023-06-04T14:22:37;2.77;;;1.10;;
7657;SDS011;8462;53.156;8.220;2023-06-04T14:25:06;0.83;;;0.83;;
7657;SDS011;8462;53.156;8.220;2023-06-04T14:27:34;2.63;;;1.20;;
7657;SDS011;8462;53.156;8.220;2023-06-04T14:30:02;3.23;;;1.03;;
7657;SDS011;8462;53.156;8.220;2023-06-04T14:32:32;2.33;;;1.50;;
7657;SDS011;8462;53.156;8.220;2023-06-04T14:35:01;3.40;;;1.30;;
7657;SDS011;8462;53.156;8.220;2023-06-04T14:37:42;1.60;;;1.20;;
7657;SDS011;8462;53.156;8.220;2023-06-04T14:40:20;3.20;;;1.20;;
7657;SDS011;8462;53.156;8.220;2023-06-04T14:42:48;1.73;;;1.13;;
7657;SDS011;8462;53.156;8.220;2023-06-04T14:45:18;2.47;;;1.40;;
7657;SDS011;8462;53.156;8.220;2023-06-04T14:47:50;2.50;;;1.10;;
7657;SDS011;8462;53.156;8.220;2023-06-04T14:50:18;1.50;;;1.30;;
7657;SDS011;8462;53.156;8.220;2023-06-04T14:52:46;2.47;;;1.40;;
7657;SDS011;8462;53.156;8.220;2023-06-04T14:55:13;3.63;;;1.50;;
7657;SDS011;8462;53.156;8.220;2023-06-04T14:57:40;2.07;;;1.63;;
7657;SDS011;8462;53.156;8.220;2023-06-04T15:00:07;2.77;;;1.53;;
7657;SDS011;8462;53.156;8.220;2023-06-04T15:02:34;3.70;;;1.57;;
7657;SDS011;8462;53.156;8.220;2023-06-04T15:05:01;2.57;;;1.30;;
7657;SDS011;8462;53.156;8.220;2023-06-04T15:07:28;3.43;;;1.93;;
7657;SDS011;8462;53.156;8.220;2023-06-04T15:09:57;3.57;;;0.97;;
7657;SDS011;8462;53.156;8.220;2023-06-04T15:12:23;1.70;;;1.03;;
7657;SDS011;8462;53.156;8.220;2023-06-04T15:14:50;1.63;;;1.10;;
7657;SDS011;8462;53.156;8.220;2023-06-04T15:17:17;3.97;;;1.53;;
7657;SDS011;8462;53.156;8.220;2023-06-04T15:19:44;2.93;;;1.67;;
7657;SDS011;8462;53.156;8.220;2023-06-04T15:22:11;5.03;;;1.50;;
7657;SDS011;8462;53.156;8.220;2023-06-04T15:24:38;2.10;;;0.90;;